createdAt,value
2022-11-15T00:03:24.355Z,1011.63
2022-11-15T00:08:24.554Z,1011.62
2022-11-15T00:13:22.746Z,1011.61
2022-11-15T00:18:21.952Z,1011.54
2022-11-15T00:23:21.157Z,1011.50
2022-11-15T00:28:21.372Z,1011.48
2022-11-15T00:33:19.560Z,1011.44
2022-11-15T00:38:18.770Z,1011.39
2022-11-15T00:43:18.092Z,1011.33
2022-11-15T00:48:19.316Z,1011.40
2022-11-15T00:53:16.640Z,1011.37
2022-11-15T00:58:16.672Z,1011.30
2022-11-15T01:03:14.881Z,1011.25
2022-11-15T01:08:14.140Z,1011.23
2022-11-15T01:13:13.317Z,1011.17
2022-11-15T01:18:12.513Z,1011.11
2022-11-15T01:23:12.707Z,1011.16
2022-11-15T01:28:10.904Z,1011.14
2022-11-15T01:33:11.083Z,1011.17
2022-11-15T01:38:09.276Z,1011.08
2022-11-15T01:43:09.441Z,1010.98
2022-11-15T01:48:07.625Z,1010.78
2022-11-15T01:53:06.877Z,1010.74
2022-11-15T01:58:05.971Z,1010.68
2022-11-15T02:03:06.265Z,1010.71
2022-11-15T02:08:04.561Z,1010.76
2022-11-15T02:13:03.860Z,1010.67
2022-11-15T02:18:04.193Z,1010.67
2022-11-15T02:23:02.540Z,1010.65
2022-11-15T02:28:02.844Z,1010.64
2022-11-15T02:33:00.928Z,1010.52
2022-11-15T02:38:00.200Z,1010.44
2022-11-15T02:43:02.120Z,1010.43
2022-11-15T02:47:58.632Z,1010.40
2022-11-15T02:52:57.936Z,1010.43
2022-11-15T02:57:58.243Z,1010.45
2022-11-15T03:02:57.547Z,1010.55
2022-11-15T03:08:01.024Z,1010.55
2022-11-15T03:12:55.974Z,1010.56
2022-11-15T03:17:54.264Z,1010.48
2022-11-15T03:22:54.561Z,1010.47
2022-11-15T03:27:53.829Z,1010.42
2022-11-15T03:32:53.138Z,1010.47
2022-11-15T03:37:51.478Z,1010.41
2022-11-15T03:42:50.582Z,1010.36
2022-11-15T03:47:51.907Z,1010.34
2022-11-15T03:52:50.220Z,1010.29
2022-11-15T03:57:49.539Z,1010.39
2022-11-15T04:02:47.840Z,1010.37
2022-11-15T04:07:47.160Z,1010.44
2022-11-15T04:12:46.393Z,1010.37
2022-11-15T04:17:46.688Z,1010.35
2022-11-15T04:22:45.942Z,1010.29
2022-11-15T04:27:44.259Z,1010.23
2022-11-15T04:32:43.520Z,1010.16
2022-11-15T04:37:47.951Z,1010.21
2022-11-15T04:42:43.026Z,1010.21
2022-11-15T04:47:42.307Z,1010.12
2022-11-15T04:52:40.595Z,1010.06
2022-11-15T04:57:39.926Z,1010.07
2022-11-15T05:02:41.201Z,1010.10
2022-11-15T05:07:39.491Z,1010.02
2022-11-15T05:12:38.742Z,1010.02
2022-11-15T05:17:40.118Z,1010.01
2022-11-15T05:22:36.191Z,1009.96
2022-11-15T05:27:36.546Z,1009.94
2022-11-15T05:32:34.651Z,1009.93
2022-11-15T05:37:33.956Z,1009.86
2022-11-15T05:42:33.283Z,1009.95
2022-11-15T05:47:32.578Z,1009.85
2022-11-15T05:52:31.877Z,1009.84
2022-11-15T05:57:30.202Z,1009.79
2022-11-15T06:02:31.591Z,1009.84
2022-11-15T06:07:29.766Z,1009.81
2022-11-15T06:12:28.905Z,1009.81
2022-11-15T06:17:28.256Z,1009.81
2022-11-15T06:22:27.347Z,1009.82
2022-11-15T06:27:27.656Z,1009.79
2022-11-15T06:32:25.935Z,1009.80
2022-11-15T06:37:26.207Z,1009.75
2022-11-15T06:42:25.471Z,1009.82
2022-11-15T06:47:29.748Z,1009.79
2022-11-15T06:52:23.003Z,1009.84
2022-11-15T06:57:23.302Z,1009.78
2022-11-15T07:02:21.614Z,1009.76
2022-11-15T07:07:21.964Z,1009.70
2022-11-15T07:12:22.160Z,1009.64
2022-11-15T07:17:21.247Z,1009.57
2022-11-15T07:22:19.582Z,1009.64
2022-11-15T07:27:18.967Z,1009.68
2022-11-15T07:32:18.088Z,1009.63
2022-11-15T07:37:17.444Z,1009.54
2022-11-15T07:42:15.540Z,1009.56
2022-11-15T07:47:14.860Z,1009.60
2022-11-15T07:52:18.291Z,1009.59
2022-11-15T07:57:14.393Z,1009.55
2022-11-15T08:02:12.753Z,1009.53
2022-11-15T08:07:12.922Z,1009.50
2022-11-15T08:12:11.202Z,1009.35
2022-11-15T08:17:10.505Z,1009.40
2022-11-15T08:22:10.843Z,1009.33
2022-11-15T08:27:10.188Z,1009.22
2022-11-15T08:32:09.359Z,1009.22
2022-11-15T08:37:08.457Z,1009.19
2022-11-15T08:42:07.778Z,1009.09
2022-11-15T08:47:06.083Z,1009.18
2022-11-15T08:52:06.415Z,1009.05
2022-11-15T08:57:04.752Z,1009.04
2022-11-15T09:02:05.197Z,1008.96
2022-11-15T09:07:03.389Z,1008.91
2022-11-15T09:12:04.489Z,1008.89
2022-11-15T09:17:02.817Z,1008.88
2022-11-15T09:22:01.932Z,1008.77
2022-11-15T09:26:59.223Z,1008.78
2022-11-15T09:31:59.541Z,1008.80
2022-11-15T09:36:59.836Z,1008.81
2022-11-15T09:41:58.172Z,1008.80
2022-11-15T09:46:57.470Z,1008.83
2022-11-15T09:51:56.789Z,1008.70
2022-11-15T09:56:56.148Z,1008.72
2022-11-15T10:01:55.261Z,1008.60
2022-11-15T10:06:54.417Z,1008.56
2022-11-15T10:11:53.699Z,1008.49
2022-11-15T10:16:53.033Z,1008.48
2022-11-15T10:21:52.332Z,1008.46
2022-11-15T10:26:52.647Z,1008.37
2022-11-15T10:31:50.978Z,1008.34
2022-11-15T10:36:50.535Z,1008.38
2022-11-15T10:41:49.254Z,1008.22
2022-11-15T10:46:48.652Z,1008.14
2022-11-15T10:51:47.758Z,1008.15
2022-11-15T10:56:47.080Z,1008.12
2022-11-15T11:01:46.476Z,1008.10
2022-11-15T11:06:46.608Z,1008.10
2022-11-15T11:11:46.314Z,1008.07
2022-11-15T11:16:44.248Z,1008.04
2022-11-15T11:21:43.506Z,1007.96
2022-11-15T11:26:43.944Z,1007.95
2022-11-15T11:31:44.039Z,1007.98
2022-11-15T11:36:42.338Z,1008.05
2022-11-15T11:41:41.633Z,1007.98
2022-11-15T11:46:39.959Z,1007.95
2022-11-15T11:51:40.335Z,1008.08
2022-11-15T11:56:38.420Z,1008.00
2022-11-15T12:01:38.820Z,1008.02
2022-11-15T12:06:37.005Z,1007.99
2022-11-15T12:11:36.336Z,1008.02
2022-11-15T12:16:36.579Z,1007.93
2022-11-15T12:21:34.699Z,1007.96
2022-11-15T12:26:35.062Z,1007.97
2022-11-15T12:31:33.161Z,1007.94
2022-11-15T12:36:32.506Z,1007.92
2022-11-15T12:41:32.616Z,1007.98
2022-11-15T12:46:30.915Z,1007.91
2022-11-15T12:51:30.203Z,1007.87
2022-11-15T12:56:29.421Z,1007.90
2022-11-15T13:01:28.758Z,1007.84
2022-11-15T13:06:28.054Z,1007.85
2022-11-15T13:11:27.379Z,1007.86
2022-11-15T13:16:28.658Z,1007.79
2022-11-15T13:21:25.944Z,1007.78
2022-11-15T13:26:26.240Z,1007.68
2022-11-15T13:31:24.499Z,1007.59
2022-11-15T13:36:25.819Z,1007.53
2022-11-15T13:41:23.114Z,1007.47
2022-11-15T13:46:22.462Z,1007.42
2022-11-15T13:51:22.785Z,1007.34
2022-11-15T13:56:21.199Z,1007.18
2022-11-15T14:01:22.350Z,1007.06
2022-11-15T14:06:19.465Z,1006.97
2022-11-15T14:11:19.787Z,1006.96
2022-11-15T14:16:19.099Z,1006.81
2022-11-15T14:21:17.390Z,1006.82
2022-11-15T14:26:17.717Z,1006.70
2022-11-15T14:31:15.008Z,1006.58
2022-11-15T14:36:16.381Z,1006.52
2022-11-15T14:41:14.507Z,1006.42
2022-11-15T14:46:13.652Z,1006.39
2022-11-15T14:51:12.979Z,1006.33
2022-11-15T14:56:13.296Z,1006.27
2022-11-15T15:01:13.691Z,1006.15
2022-11-15T15:06:15.121Z,1006.08
2022-11-15T15:11:09.917Z,1005.97
2022-11-15T15:16:09.178Z,1005.87
2022-11-15T15:21:08.507Z,1005.80
2022-11-15T15:26:08.632Z,1005.74
2022-11-15T15:31:07.942Z,1005.66
2022-11-15T15:36:06.305Z,1005.59
2022-11-15T15:41:05.703Z,1005.53
2022-11-15T15:46:04.638Z,1005.44
2022-11-15T15:51:12.995Z,1005.40
2022-11-15T15:56:03.067Z,1005.26
2022-11-15T16:01:02.417Z,1005.27
2022-11-15T16:06:02.518Z,1005.14
2022-11-15T16:11:00.904Z,1005.10
2022-11-15T16:16:00.018Z,1005.04
2022-11-15T16:21:00.304Z,1005.02
2022-11-15T16:25:58.609Z,1004.95
2022-11-15T16:31:01.080Z,1004.75
2022-11-15T16:35:58.236Z,1004.74
2022-11-15T16:40:57.523Z,1004.77
2022-11-15T16:45:56.801Z,1004.66
2022-11-15T16:50:56.088Z,1004.59
2022-11-15T16:55:54.379Z,1004.59
2022-11-15T17:00:54.815Z,1004.53
2022-11-15T17:05:54.280Z,1004.53
2022-11-15T17:10:53.040Z,1004.54
2022-11-15T17:15:52.402Z,1004.58
2022-11-15T17:20:54.740Z,1004.45
2022-11-15T17:25:50.039Z,1004.42
2022-11-15T17:30:50.354Z,1004.32
2022-11-15T17:35:49.748Z,1004.30
2022-11-15T17:40:51.367Z,1004.23
2022-11-15T17:45:47.326Z,1004.13
2022-11-15T17:50:47.508Z,1004.11
2022-11-15T17:55:45.522Z,1004.14
2022-11-15T18:00:46.858Z,1003.96
2022-11-15T18:05:43.797Z,1003.84
2022-11-15T18:10:43.179Z,1003.77
2022-11-15T18:15:42.251Z,1003.65
2022-11-15T18:20:43.659Z,1003.64
2022-11-15T18:25:40.832Z,1003.66
2022-11-15T18:30:40.163Z,1003.63
2022-11-15T18:35:39.287Z,1003.45
2022-11-15T18:40:38.633Z,1003.45
2022-11-15T18:45:37.892Z,1003.34
2022-11-15T18:50:38.327Z,1003.21
2022-11-15T18:55:36.470Z,1003.10
2022-11-15T19:00:35.923Z,1003.05
2022-11-15T19:05:35.250Z,1002.97
2022-11-15T19:10:34.241Z,1002.91
2022-11-15T19:15:33.567Z,1002.77
2022-11-15T19:20:33.144Z,1002.73
2022-11-15T19:25:32.196Z,1002.56
2022-11-15T19:30:32.363Z,1002.45
2022-11-15T19:35:36.277Z,1002.41
2022-11-15T19:40:29.921Z,1002.34
2022-11-15T19:45:29.397Z,1002.29
2022-11-15T19:50:29.614Z,1002.20
2022-11-15T19:55:27.803Z,1002.17
2022-11-15T20:00:28.082Z,1002.20
2022-11-15T20:05:27.384Z,1002.18
2022-11-15T20:10:27.719Z,1002.05
2022-11-15T20:15:26.003Z,1001.89
2022-11-15T20:20:23.973Z,1001.86
2022-11-15T20:25:23.333Z,1001.81
2022-11-15T20:30:22.570Z,1001.67
2022-11-15T20:35:21.728Z,1001.59
2022-11-15T20:40:21.893Z,1001.51
2022-11-15T20:45:20.552Z,1001.59
2022-11-15T20:50:41.115Z,1001.54
2022-11-15T20:55:19.114Z,1001.46
2022-11-15T21:00:18.330Z,1001.48
2022-11-15T21:05:20.291Z,1001.43
2022-11-15T21:10:16.566Z,1001.32
2022-11-15T21:15:15.886Z,1001.24
2022-11-15T21:20:15.203Z,1001.11
2022-11-15T21:25:14.517Z,1001.11
2022-11-15T21:30:15.853Z,1001.05
2022-11-15T21:35:14.162Z,1001.10
2022-11-15T21:40:12.495Z,1000.93
2022-11-15T21:45:11.620Z,1000.80
2022-11-15T21:50:11.042Z,1000.80
2022-11-15T21:55:11.174Z,1000.71
2022-11-15T22:00:10.447Z,1000.64
2022-11-15T22:05:08.697Z,1000.54
2022-11-15T22:10:08.995Z,1000.55
2022-11-15T22:15:07.297Z,1000.35
2022-11-15T22:20:23.087Z,1000.26
2022-11-15T22:25:05.760Z,1000.27
2022-11-15T22:30:08.182Z,1000.23
2022-11-15T22:35:04.266Z,1000.05
2022-11-15T22:40:04.587Z,999.99
2022-11-15T22:45:02.866Z,1000.02
2022-11-15T22:50:04.208Z,999.96
2022-11-15T22:55:01.498Z,999.96
2022-11-15T23:00:01.791Z,999.93
2022-11-15T23:05:00.104Z,999.92
2022-11-15T23:09:59.410Z,999.99
2022-11-15T23:14:58.689Z,1000.07
2022-11-15T23:20:01.036Z,1000.17
2022-11-15T23:24:57.281Z,1000.35
2022-11-15T23:29:57.611Z,1000.39
2022-11-15T23:34:57.721Z,1000.49
2022-11-15T23:39:54.835Z,1000.58
2022-11-15T23:44:54.152Z,1000.65
2022-11-15T23:49:53.566Z,1000.69
2022-11-15T23:54:53.759Z,1000.76
2022-11-15T23:59:52.868Z,1000.82
